createdAt,value
2018-12-06T00:02:19.957Z,6.20
2018-12-06T00:05:29.333Z,6.60
2018-12-06T00:08:38.648Z,7.13
2018-12-06T00:11:48.119Z,6.27
2018-12-06T00:15:09.330Z,5.77
2018-12-06T00:18:18.690Z,5.93
2018-12-06T00:21:27.956Z,5.97
2018-12-06T00:24:37.203Z,5.87
2018-12-06T00:27:46.717Z,6.70
2018-12-06T00:30:55.961Z,6.57
2018-12-06T00:34:05.396Z,6.50
2018-12-06T00:37:14.775Z,6.70
2018-12-06T00:40:23.981Z,7.03
2018-12-06T00:43:33.367Z,6.37
2018-12-06T00:46:42.553Z,6.60
2018-12-06T00:49:52.080Z,6.73
2018-12-06T00:53:01.288Z,6.70
2018-12-06T00:56:10.510Z,6.40
2018-12-06T00:59:19.869Z,6.70
2018-12-06T01:02:29.209Z,5.83
2018-12-06T01:05:38.486Z,6.07
2018-12-06T01:08:47.696Z,6.67
2018-12-06T01:11:57.099Z,6.63
2018-12-06T01:15:06.642Z,6.17
2018-12-06T01:18:16.008Z,7.03
2018-12-06T01:21:25.425Z,6.83
2018-12-06T01:24:34.820Z,7.60
2018-12-06T01:27:44.211Z,7.07
2018-12-06T01:30:53.479Z,6.70
2018-12-06T01:34:02.759Z,6.30
2018-12-06T01:37:11.975Z,6.77
2018-12-06T01:40:21.193Z,6.33
2018-12-06T01:43:30.663Z,6.33
2018-12-06T01:46:40.180Z,6.57
2018-12-06T01:49:49.546Z,6.20
2018-12-06T01:52:58.884Z,6.87
2018-12-06T01:56:08.291Z,6.30
2018-12-06T01:59:17.689Z,6.73
2018-12-06T02:02:27.984Z,6.63
2018-12-06T02:05:38.142Z,6.70
2018-12-06T02:08:49.239Z,6.43
2018-12-06T02:12:01.894Z,7.03
2018-12-06T02:15:15.951Z,6.50
2018-12-06T02:18:25.924Z,6.23
2018-12-06T02:21:35.287Z,7.37
2018-12-06T02:24:44.728Z,6.40
2018-12-06T02:27:54.172Z,7.23
2018-12-06T02:31:03.433Z,6.50
2018-12-06T02:34:12.727Z,6.60
2018-12-06T02:37:22.043Z,6.10
2018-12-06T02:40:31.298Z,6.13
2018-12-06T02:43:40.605Z,6.83
2018-12-06T02:46:49.850Z,6.30
2018-12-06T02:49:59.129Z,5.93
2018-12-06T02:53:08.417Z,5.53
2018-12-06T02:56:17.790Z,6.07
2018-12-06T02:59:27.191Z,5.90
2018-12-06T03:02:36.601Z,5.60
2018-12-06T03:05:45.940Z,5.97
2018-12-06T03:08:55.141Z,6.20
2018-12-06T03:12:04.470Z,6.10
2018-12-06T03:15:13.852Z,6.03
2018-12-06T03:18:23.417Z,5.60
2018-12-06T03:21:32.679Z,5.93
2018-12-06T03:24:42.012Z,5.63
2018-12-06T03:27:51.261Z,5.80
2018-12-06T03:31:00.825Z,5.27
2018-12-06T03:34:10.231Z,6.30
2018-12-06T03:37:19.634Z,6.10
2018-12-06T03:40:29.056Z,5.33
2018-12-06T03:43:38.461Z,6.57
2018-12-06T03:46:47.784Z,6.00
2018-12-06T03:49:57.012Z,5.90
2018-12-06T03:53:06.388Z,5.70
2018-12-06T03:56:15.740Z,5.40
2018-12-06T03:59:25.071Z,6.33
2018-12-06T04:02:34.437Z,5.53
2018-12-06T04:05:43.731Z,6.00
2018-12-06T04:08:53.121Z,5.13
2018-12-06T04:12:02.966Z,5.67
2018-12-06T04:18:27.986Z,4.60
2018-12-06T04:21:37.436Z,5.20
2018-12-06T04:24:46.701Z,5.27
2018-12-06T04:27:55.881Z,5.13
2018-12-06T04:31:05.243Z,5.17
2018-12-06T04:34:14.621Z,5.40
2018-12-06T04:37:23.990Z,5.77
2018-12-06T04:40:33.378Z,5.47
2018-12-06T04:43:42.679Z,4.77
2018-12-06T04:46:52.026Z,4.77
2018-12-06T04:50:01.466Z,5.30
2018-12-06T04:53:10.743Z,5.00
2018-12-06T04:56:20.107Z,4.87
2018-12-06T04:59:29.405Z,4.77
2018-12-06T05:02:38.665Z,5.27
2018-12-06T05:05:47.871Z,5.23
2018-12-06T05:08:57.371Z,5.33
2018-12-06T05:12:06.789Z,4.80
2018-12-06T05:15:16.124Z,5.10
2018-12-06T05:18:25.461Z,4.43
2018-12-06T05:21:35.290Z,4.73
2018-12-06T05:25:11.927Z,4.73
2018-12-06T05:28:21.260Z,5.10
2018-12-06T05:31:30.618Z,5.10
2018-12-06T05:34:39.889Z,4.63
2018-12-06T05:37:49.226Z,4.90
2018-12-06T05:40:59.072Z,4.67
2018-12-06T05:44:08.372Z,5.17
2018-12-06T05:47:17.835Z,4.97
2018-12-06T05:50:27.104Z,5.10
2018-12-06T05:53:36.534Z,4.30
2018-12-06T05:56:45.716Z,4.93
2018-12-06T05:59:54.969Z,5.30
2018-12-06T06:03:04.305Z,4.97
2018-12-06T06:06:13.485Z,5.10
2018-12-06T06:09:22.826Z,5.27
2018-12-06T06:12:32.140Z,4.67
2018-12-06T06:15:41.577Z,4.60
2018-12-06T06:18:51.021Z,5.03
2018-12-06T06:22:00.461Z,4.70
2018-12-06T06:25:09.883Z,4.53
2018-12-06T06:28:19.405Z,4.87
2018-12-06T06:31:28.869Z,4.53
2018-12-06T06:34:38.301Z,4.57
2018-12-06T06:37:47.635Z,4.47
2018-12-06T06:40:56.906Z,4.63
2018-12-06T06:44:06.155Z,4.77
2018-12-06T06:47:15.581Z,4.87
2018-12-06T06:50:25.028Z,5.47
2018-12-06T06:53:34.430Z,5.60
2018-12-06T06:56:43.638Z,5.50
2018-12-06T06:59:58.216Z,5.37
2018-12-06T07:03:07.609Z,5.13
2018-12-06T07:06:17.002Z,5.10
2018-12-06T07:09:26.264Z,5.17
2018-12-06T07:12:36.018Z,5.80
2018-12-06T07:15:45.257Z,5.23
2018-12-06T07:18:54.534Z,5.03
2018-12-06T07:22:04.015Z,5.37
2018-12-06T07:25:13.402Z,5.00
2018-12-06T07:28:22.929Z,5.00
2018-12-06T07:31:32.634Z,5.40
2018-12-06T07:34:42.069Z,5.70
2018-12-06T07:37:51.332Z,5.83
2018-12-06T07:41:00.810Z,5.07
2018-12-06T07:44:10.236Z,4.77
2018-12-06T07:47:19.586Z,5.00
2018-12-06T07:50:28.965Z,5.27
2018-12-06T07:53:38.381Z,5.13
2018-12-06T07:56:47.638Z,4.97
2018-12-06T07:59:57.073Z,6.30
2018-12-06T08:03:06.469Z,4.97
2018-12-06T08:06:15.675Z,5.00
2018-12-06T08:09:24.930Z,5.53
2018-12-06T08:12:34.378Z,5.00
2018-12-06T08:15:43.749Z,4.70
2018-12-06T08:18:53.160Z,6.10
2018-12-06T08:22:02.525Z,5.77
2018-12-06T08:25:11.922Z,5.60
2018-12-06T08:28:21.195Z,5.50
2018-12-06T08:31:30.472Z,5.20
2018-12-06T08:34:39.698Z,5.60
2018-12-06T08:37:49.067Z,5.30
2018-12-06T08:40:58.510Z,4.80
2018-12-06T08:44:07.889Z,5.77
2018-12-06T08:47:17.391Z,5.07
2018-12-06T08:50:26.666Z,5.47
2018-12-06T08:53:36.160Z,6.43
2018-12-06T08:56:45.720Z,5.50
2018-12-06T08:59:55.465Z,5.53
2018-12-06T09:03:04.882Z,5.67
2018-12-06T09:06:14.277Z,5.23
2018-12-06T09:09:23.644Z,5.67
2018-12-06T09:12:33.061Z,6.10
2018-12-06T09:15:42.542Z,5.83
2018-12-06T09:18:58.658Z,6.03
2018-12-06T09:22:08.068Z,4.90
2018-12-06T09:25:20.990Z,5.50
2018-12-06T09:28:28.671Z,5.50
2018-12-06T09:31:38.109Z,5.60
2018-12-06T09:34:47.435Z,5.63
2018-12-06T09:37:56.721Z,5.40
2018-12-06T09:41:06.192Z,6.03
2018-12-06T09:44:15.524Z,5.43
2018-12-06T09:47:24.907Z,5.97
2018-12-06T09:50:34.228Z,5.10
2018-12-06T09:53:43.545Z,6.03
2018-12-06T09:57:31.641Z,7.43
2018-12-06T10:00:40.890Z,5.93
2018-12-06T10:03:50.373Z,6.47
2018-12-06T10:07:00.132Z,6.10
2018-12-06T10:10:09.504Z,5.70
2018-12-06T10:13:18.825Z,6.00
2018-12-06T10:16:28.337Z,5.27
2018-12-06T10:19:37.737Z,4.90
2018-12-06T10:22:47.438Z,4.30
2018-12-06T10:25:56.945Z,5.90
2018-12-06T10:29:06.276Z,6.80
2018-12-06T10:32:15.587Z,5.33
2018-12-06T10:35:24.764Z,5.00
2018-12-06T10:38:34.126Z,4.80
2018-12-06T10:41:43.770Z,5.50
2018-12-06T10:44:53.305Z,4.73
2018-12-06T10:48:02.597Z,5.50
2018-12-06T10:51:23.474Z,4.57
2018-12-06T10:54:34.023Z,5.03
2018-12-06T10:57:43.334Z,4.87
2018-12-06T11:00:58.110Z,4.93
2018-12-06T11:04:07.500Z,5.30
2018-12-06T11:07:16.990Z,5.23
2018-12-06T11:10:26.365Z,5.03
2018-12-06T11:13:35.661Z,4.80
2018-12-06T11:16:45.011Z,5.30
2018-12-06T11:19:54.435Z,4.70
2018-12-06T11:23:03.840Z,4.87
2018-12-06T11:26:13.421Z,5.43
2018-12-06T11:29:22.824Z,5.77
2018-12-06T11:32:32.183Z,5.10
2018-12-06T11:35:41.557Z,5.43
2018-12-06T11:38:50.926Z,5.87
2018-12-06T11:42:00.322Z,5.03
2018-12-06T11:45:09.843Z,5.37
2018-12-06T11:48:26.663Z,5.40
2018-12-06T11:51:30.709Z,4.73
2018-12-06T11:54:40.051Z,6.23
2018-12-06T11:57:49.353Z,6.20
2018-12-06T12:00:58.580Z,6.33
2018-12-06T12:04:07.921Z,5.60
2018-12-06T12:07:17.339Z,5.57
2018-12-06T12:10:26.640Z,6.40
2018-12-06T12:13:35.898Z,5.90
2018-12-06T12:16:45.456Z,6.03
2018-12-06T12:19:54.732Z,6.63
2018-12-06T12:23:04.017Z,6.03
2018-12-06T12:26:13.253Z,5.50
2018-12-06T12:32:15.339Z,6.50
2018-12-06T12:35:24.588Z,5.33
2018-12-06T12:41:49.565Z,5.43
2018-12-06T12:44:58.900Z,6.97
2018-12-06T12:48:08.370Z,5.77
2018-12-06T12:51:17.716Z,6.47
2018-12-06T12:54:27.072Z,5.73
2018-12-06T12:58:39.924Z,6.30
2018-12-06T13:01:49.333Z,7.63
2018-12-06T13:04:58.777Z,6.47
2018-12-06T13:08:08.223Z,6.13
2018-12-06T13:11:17.667Z,6.03
2018-12-06T13:14:26.937Z,6.83
2018-12-06T13:17:36.324Z,7.23
2018-12-06T13:20:45.511Z,6.90
2018-12-06T13:23:54.925Z,6.20
2018-12-06T13:27:04.152Z,5.93
2018-12-06T13:30:13.453Z,5.67
2018-12-06T13:33:22.973Z,6.17
2018-12-06T13:36:32.247Z,6.40
2018-12-06T13:39:41.645Z,6.87
2018-12-06T13:42:51.125Z,7.13
2018-12-06T13:46:00.507Z,9.40
2018-12-06T13:49:09.977Z,7.90
2018-12-06T13:52:19.381Z,7.77
2018-12-06T13:55:28.783Z,7.40
2018-12-06T13:58:38.075Z,7.43
2018-12-06T14:01:47.285Z,6.27
2018-12-06T14:04:56.597Z,7.17
2018-12-06T14:08:06.075Z,6.90
2018-12-06T14:11:15.450Z,7.40
2018-12-06T14:14:25.085Z,6.83
2018-12-06T14:17:34.487Z,6.57
2018-12-06T14:20:44.139Z,7.87
2018-12-06T14:23:53.560Z,8.10
2018-12-06T14:27:02.815Z,7.97
2018-12-06T14:30:12.189Z,9.27
2018-12-06T14:33:21.696Z,9.27
2018-12-06T14:36:30.913Z,8.43
2018-12-06T14:39:40.188Z,9.03
2018-12-06T14:42:49.472Z,8.27
2018-12-06T14:45:58.842Z,10.27
2018-12-06T14:49:08.169Z,9.00
2018-12-06T14:52:17.473Z,8.13
2018-12-06T14:55:26.917Z,8.63
2018-12-06T14:58:36.307Z,7.43
2018-12-06T15:01:45.546Z,7.77
2018-12-06T15:04:54.790Z,8.63
2018-12-06T15:08:04.044Z,7.97
2018-12-06T15:11:13.509Z,8.07
2018-12-06T15:14:22.956Z,8.40
2018-12-06T15:17:32.213Z,7.50
2018-12-06T15:20:41.493Z,7.70
2018-12-06T15:23:51.048Z,7.83
2018-12-06T15:27:00.478Z,8.17
2018-12-06T15:30:10.694Z,14.33
2018-12-06T15:33:19.895Z,9.03
2018-12-06T15:36:29.260Z,9.60
2018-12-06T15:39:38.597Z,9.53
2018-12-06T15:42:48.006Z,9.47
2018-12-06T15:45:57.329Z,9.57
2018-12-06T15:49:06.707Z,9.60
2018-12-06T15:52:16.144Z,10.60
2018-12-06T15:55:25.657Z,11.40
2018-12-06T15:58:34.944Z,12.47
2018-12-06T16:01:44.835Z,12.33
2018-12-06T16:04:54.179Z,12.90
2018-12-06T16:08:04.161Z,13.93
2018-12-06T16:11:13.456Z,15.43
2018-12-06T16:14:22.763Z,18.67
2018-12-06T16:17:32.042Z,18.87
2018-12-06T16:20:41.374Z,18.73
2018-12-06T16:23:51.043Z,18.43
2018-12-06T16:27:00.460Z,18.73
2018-12-06T16:30:09.842Z,17.53
2018-12-06T16:33:19.253Z,20.93
2018-12-06T16:36:28.638Z,20.53
2018-12-06T16:39:37.939Z,21.50
2018-12-06T16:42:47.308Z,21.70
2018-12-06T16:45:56.612Z,22.93
2018-12-06T16:49:10.073Z,23.60
2018-12-06T16:52:17.437Z,24.70
2018-12-06T16:55:27.680Z,22.87
2018-12-06T16:58:36.920Z,23.70
2018-12-06T17:01:46.235Z,24.83
2018-12-06T17:04:55.595Z,24.57
2018-12-06T17:08:04.997Z,25.30
2018-12-06T17:11:14.550Z,26.83
2018-12-06T17:14:23.821Z,25.53
2018-12-06T17:17:33.268Z,27.03
2018-12-06T17:20:42.722Z,29.33
2018-12-06T17:23:52.199Z,27.80
2018-12-06T17:27:01.804Z,26.23
2018-12-06T17:30:11.242Z,26.27
2018-12-06T17:33:20.623Z,26.60
2018-12-06T17:36:36.834Z,26.67
2018-12-06T17:39:46.164Z,27.50
2018-12-06T17:42:55.737Z,24.83
2018-12-06T17:46:05.163Z,26.37
2018-12-06T17:49:14.506Z,27.60
2018-12-06T17:52:24.443Z,26.80
2018-12-06T17:55:34.302Z,28.23
2018-12-06T17:58:43.798Z,28.57
2018-12-06T18:01:53.342Z,29.03
2018-12-06T18:05:02.962Z,32.90
2018-12-06T18:08:12.472Z,28.97
2018-12-06T18:11:21.796Z,28.27
2018-12-06T18:14:31.123Z,29.27
2018-12-06T18:17:40.690Z,31.13
2018-12-06T18:20:50.463Z,36.10
2018-12-06T18:23:59.919Z,29.33
2018-12-06T18:27:09.337Z,26.40
2018-12-06T18:30:18.905Z,29.23
2018-12-06T18:33:28.878Z,28.37
2018-12-06T18:36:38.405Z,25.43
2018-12-06T18:39:47.829Z,26.30
2018-12-06T18:42:57.206Z,25.33
2018-12-06T18:46:06.707Z,26.50
2018-12-06T18:49:16.194Z,26.07
2018-12-06T18:52:25.780Z,27.33
2018-12-06T18:55:35.306Z,27.23
2018-12-06T18:58:44.873Z,25.70
2018-12-06T19:01:54.263Z,25.63
2018-12-06T19:05:03.544Z,27.33
2018-12-06T19:08:12.914Z,26.33
2018-12-06T19:11:22.277Z,25.13
2018-12-06T19:14:31.732Z,27.60
2018-12-06T19:17:41.223Z,25.33
2018-12-06T19:20:50.589Z,26.97
2018-12-06T19:23:59.864Z,26.87
2018-12-06T19:27:09.128Z,26.57
2018-12-06T19:30:18.508Z,26.63
2018-12-06T19:33:27.881Z,26.47
2018-12-06T19:36:37.250Z,27.43
2018-12-06T19:39:46.517Z,26.07
2018-12-06T19:42:56.009Z,25.57
2018-12-06T19:46:05.472Z,25.23
2018-12-06T19:49:14.905Z,24.97
2018-12-06T19:52:24.171Z,24.80
2018-12-06T19:55:33.607Z,23.53
2018-12-06T19:58:42.949Z,22.97
2018-12-06T20:01:52.253Z,24.93
2018-12-06T20:05:01.555Z,24.00
2018-12-06T20:08:11.063Z,24.27
2018-12-06T20:11:20.624Z,23.23
2018-12-06T20:14:29.990Z,24.07
2018-12-06T20:17:39.164Z,24.10
2018-12-06T20:20:48.706Z,23.20
2018-12-06T20:23:57.919Z,25.60
2018-12-06T20:27:07.287Z,22.67
2018-12-06T20:30:16.549Z,23.60
2018-12-06T20:33:25.949Z,25.00
2018-12-06T20:36:35.318Z,24.13
2018-12-06T20:39:44.566Z,22.60
2018-12-06T20:42:53.914Z,25.77
2018-12-06T20:46:03.519Z,26.30
2018-12-06T20:50:38.216Z,25.27
2018-12-06T20:53:47.701Z,28.87
2018-12-06T20:56:57.062Z,31.17
2018-12-06T21:00:07.970Z,30.37
2018-12-06T21:03:19.156Z,32.10
2018-12-06T21:06:28.756Z,31.67
2018-12-06T21:09:38.390Z,31.90
2018-12-06T21:12:47.693Z,31.13
2018-12-06T21:15:57.015Z,31.30
2018-12-06T21:19:06.353Z,31.33
2018-12-06T21:22:15.617Z,31.03
2018-12-06T21:25:24.989Z,32.90
2018-12-06T21:28:34.560Z,30.77
2018-12-06T21:31:43.998Z,29.60
2018-12-06T21:34:53.384Z,28.33
2018-12-06T21:38:02.821Z,28.47
2018-12-06T21:41:12.145Z,27.50
2018-12-06T21:44:21.587Z,26.13
2018-12-06T21:47:30.970Z,27.50
2018-12-06T21:50:40.206Z,26.03
2018-12-06T21:53:49.503Z,27.43
2018-12-06T21:56:58.883Z,29.03
2018-12-06T22:00:08.441Z,29.13
2018-12-06T22:03:17.858Z,27.87
2018-12-06T22:06:27.249Z,27.67
2018-12-06T22:09:36.553Z,27.97
2018-12-06T22:12:45.783Z,28.07
2018-12-06T22:15:55.246Z,28.10
2018-12-06T22:19:04.629Z,28.90
2018-12-06T22:22:16.001Z,30.53
2018-12-06T22:25:25.290Z,29.20
2018-12-06T22:28:34.856Z,29.33
2018-12-06T22:31:52.749Z,30.90
2018-12-06T22:35:02.252Z,28.43
2018-12-06T22:38:11.620Z,27.40
2018-12-06T22:41:20.993Z,29.63
2018-12-06T22:44:30.428Z,26.47
2018-12-06T22:47:40.155Z,26.07
2018-12-06T22:50:49.428Z,28.00
2018-12-06T22:53:58.748Z,27.20
2018-12-06T22:57:08.146Z,25.07
2018-12-06T23:00:20.859Z,25.73
2018-12-06T23:03:30.302Z,24.13
2018-12-06T23:06:39.552Z,22.87
2018-12-06T23:09:48.990Z,23.23
2018-12-06T23:12:58.396Z,22.63
2018-12-06T23:16:07.809Z,21.63
2018-12-06T23:19:17.259Z,20.73
2018-12-06T23:22:26.460Z,20.67
2018-12-06T23:25:35.910Z,18.57
2018-12-06T23:28:45.154Z,20.73
2018-12-06T23:31:54.573Z,21.67
2018-12-06T23:35:05.322Z,22.03
2018-12-06T23:38:14.535Z,20.87
2018-12-06T23:41:24.113Z,19.63
2018-12-06T23:44:33.373Z,20.30
2018-12-06T23:47:42.821Z,20.70
2018-12-06T23:50:57.470Z,18.90
2018-12-06T23:54:06.770Z,20.10
2018-12-06T23:57:16.139Z,20.50
